ADDS METAR Data

Data at: 0509 UTC 20 Apr 2018

METAR for:CYCX (Gagetown (MIL), NB, CN)
Text:CYCX 200500Z 36005KT 15SM -RA OVC015 03/03 A2966 RMK SC8 DA-853FT SLP045
Temperature: 3.0°C ( 37°F)
Dewpoint: 3.0°C ( 37°F) [RH = 100%]
Pressure (altimeter):29.66 inches Hg (1004.5 mb) [Sea level pressure: 1004.5 mb]
Winds:from the N (360 degrees) at 6 MPH (5 knots; 2.6 m/s)
Visibility: 15 sm ( 24 km)
Ceiling:1500 feet AGL
Clouds: overcast cloud deck at 1500 feet AGL
Weather:-RA (light rain)